Morse, Minnesota
Current Conditions -  °F | °C
As of 6:33 AM on Monday 26 Jan 2015 (Local Time) from KFOZ Reporting Station
Light Snow Light Snow  
Wind Chill: 21°   Ceiling: 200
Heat Index: 27°   Visibility: 2mi
Dew Point: 23°   Wind: 5mph
Humidity: 86%   Direction: 190°S
Pressure: 29.57"   Gusts: NA
Location:  47.4603°N, 94.029°W
Report Text: KFOZ 261233Z AUTO 19004KT 2SM -SN BKN002 OVC008 M03/M05 A2957 RMK AO2
Loading
Personal Weather Stations






























Interactive Weather Map New forecast layout! Learn more

10-Day Weather Forecast

Advertisements
Track Severe Weather on mobile